Greenwich, New York
Current Conditions -  °F | °C
As of 6:53 AM on Sunday 23 Nov 2014 (Local Time) from KGFL Reporting Station
Haze Haze  
Wind Chill: 33°   Ceiling: 2600
Heat Index: 37°   Visibility: 5mi
Dew Point: 32°   Wind: 5mph
Humidity: 82%   Direction: 170°S
Pressure: 30.09"   Gusts: NA
Location:  43.09°N, 73.5°W
Report Text: KGFL 231153Z AUTO 17004KT 5SM HZ OVC026 03/00 A3009 RMK AO2 SLP196 60000 T00280000 10028 20017 53008
Loading
Personal Weather Stations






























Interactive Weather Map New forecast layout! Learn more

10-Day Weather Forecast

Advertisements
Track Severe Weather on mobile